Time;durP1;ratioP1;P1;durP2;ratioP2;P2;SDS_P1;SDS_P2;PMS_P1;PMS_P2;Temp;Humidity;BMP_temperature;BMP_pressure;BME280_temperature;BME280_humidity;BME280_pressure;Samples;Min_cycle;Max_cycle;Signal;HPM_P1;HPM_P2
2022/08/12 00:44:31;;;;;;;3.55;2.97;;;20.50;99.90;;;;;;5013704;28;20049;-77
2022/08/12 00:46:59;;;;;;;4.53;3.20;;;20.40;99.90;;;;;;5014662;28;20037;-76
2022/08/12 00:49:27;;;;;;;4.30;3.35;;;20.50;99.90;;;;;;5019622;28;20042;-75
2022/08/12 00:52:10;;;;;;;5.35;3.50;;;20.40;99.90;;;;;;5021121;28;20052;-76
2022/08/12 00:54:40;;;;;;;5.38;3.30;;;20.40;99.90;;;;;;5014514;28;20046;-76
2022/08/12 00:57:16;;;;;;;5.13;3.60;;;20.30;99.90;;;;;;5023586;28;20131;-76
2022/08/12 00:59:47;;;;;;;4.95;3.35;;;20.20;99.90;;;;;;5011103;28;20053;-76
2022/08/12 01:02:39;;;;;;;6.00;3.70;;;20.20;99.90;;;;;;5019680;28;20049;-76
2022/08/12 01:13:27;;;;;;;5.57;3.72;;;20.00;99.90;;;;;;5024382;28;20208;-76
2022/08/12 01:15:58;;;;;;;5.95;3.72;;;20.00;99.90;;;;;;4994434;28;20040;-76
2022/08/12 01:18:30;;;;;;;6.93;4.07;;;20.00;99.90;;;;;;5017937;28;20057;-77
2022/08/12 01:21:11;;;;;;;9.32;4.28;;;20.00;99.90;;;;;;5015144;28;20113;-76
2022/08/12 01:23:47;;;;;;;6.82;4.47;;;19.90;99.90;;;;;;5038837;28;20052;-76
2022/08/12 01:26:24;;;;;;;5.28;4.05;;;20.00;99.90;;;;;;5022262;28;20053;-76
2022/08/12 01:28:58;;;;;;;6.22;4.35;;;20.00;99.90;;;;;;5019430;28;20091;-76
2022/08/12 01:31:25;;;;;;;6.63;4.22;;;19.90;99.90;;;;;;5022172;28;20049;-76
2022/08/12 01:34:02;;;;;;;5.93;4.07;;;19.90;99.90;;;;;;5026392;28;20067;-77
2022/08/12 01:36:40;;;;;;;8.50;4.38;;;19.90;99.90;;;;;;5026167;28;20038;-76
2022/08/12 01:39:06;;;;;;;6.20;4.38;;;19.90;99.90;;;;;;5026092;28;20053;-76
2022/08/12 01:41:38;;;;;;;5.63;4.40;;;19.90;99.90;;;;;;5021277;28;20058;-76
2022/08/12 01:44:06;;;;;;;10.98;4.38;;;19.90;99.90;;;;;;5018585;28;20040;-76
2022/08/12 01:46:36;;;;;;;6.60;4.25;;;19.80;99.90;;;;;;5023835;28;20048;-76
2022/08/12 01:49:32;;;;;;;5.70;4.43;;;19.80;99.90;;;;;;5017268;28;20052;-76
2022/08/12 01:52:03;;;;;;;9.70;4.60;;;19.80;99.90;;;;;;5023664;28;20041;-76
2022/08/12 01:54:37;;;;;;;6.63;4.50;;;19.80;99.90;;;;;;5017283;28;20378;-76
2022/08/12 01:57:16;;;;;;;6.13;4.50;;;19.70;99.90;;;;;;5017179;28;20057;-76
2022/08/12 01:59:52;;;;;;;6.65;4.20;;;19.60;99.90;;;;;;5006733;28;20050;-76
2022/08/12 02:02:59;;;;;;;8.40;4.77;;;19.60;99.90;;;;;;5020364;28;20033;-76
2022/08/12 02:11:28;;;;;;;10.48;4.70;;;19.60;99.90;;;;;;5013143;28;20050;-76
2022/08/12 02:14:23;;;;;;;6.47;4.47;;;19.60;99.90;;;;;;5020281;28;20041;-76
2022/08/12 02:17:17;;;;;;;8.50;5.00;;;19.60;99.90;;;;;;5010186;28;20171;-76
2022/08/12 02:19:48;;;;;;;6.50;4.75;;;19.50;99.90;;;;;;5020560;28;20042;-75
2022/08/12 02:22:38;;;;;;;5.97;4.60;;;19.50;99.90;;;;;;5024336;28;20038;-75
2022/08/12 02:25:09;;;;;;;8.35;4.72;;;19.50;99.90;;;;;;5022825;28;20105;-75
2022/08/12 02:27:47;;;;;;;7.78;5.00;;;19.40;99.90;;;;;;5019863;28;20041;-75
2022/08/12 02:30:18;;;;;;;7.05;4.85;;;19.40;99.90;;;;;;5016703;28;20043;-75
2022/08/12 02:32:45;;;;;;;8.13;5.05;;;19.40;99.90;;;;;;5018072;28;20045;-76
2022/08/12 02:35:13;;;;;;;7.32;5.15;;;19.30;99.90;;;;;;5022338;28;20486;-76
2022/08/12 02:37:41;;;;;;;8.07;4.40;;;19.30;99.90;;;;;;5020194;28;20069;-76
2022/08/12 02:40:09;;;;;;;5.25;4.22;;;19.30;99.90;;;;;;5019302;28;20053;-76
2022/08/12 02:42:36;;;;;;;5.80;4.45;;;19.20;99.90;;;;;;4997102;28;20037;-76
2022/08/12 02:45:06;;;;;;;5.90;4.82;;;19.20;99.90;;;;;;5019266;28;20124;-76
2022/08/12 02:47:36;;;;;;;5.60;4.82;;;19.20;99.90;;;;;;5020727;28;20466;-76
2022/08/12 02:50:04;;;;;;;8.05;5.13;;;19.20;99.90;;;;;;5018707;28;20103;-76
2022/08/12 02:52:32;;;;;;;5.95;5.13;;;19.20;99.90;;;;;;5015998;28;20042;-76
2022/08/12 02:55:23;;;;;;;8.63;5.20;;;19.20;99.90;;;;;;5018556;28;20330;-76
2022/08/12 02:57:50;;;;;;;10.48;4.88;;;19.20;99.90;;;;;;5022718;28;20497;-76
2022/08/12 03:00:17;;;;;;;5.85;4.78;;;19.10;99.90;;;;;;5020144;28;20056;-76
2022/08/12 03:02:45;;;;;;;6.63;4.80;;;19.10;99.90;;;;;;5023301;28;20053;-76
2022/08/12 03:05:16;;;;;;;9.18;4.93;;;19.10;99.90;;;;;;5023783;28;20394;-76
2022/08/12 03:07:52;;;;;;;6.43;4.40;;;19.10;99.90;;;;;;5025024;28;20048;-76
2022/08/12 03:10:21;;;;;;;5.53;4.78;;;19.00;99.90;;;;;;5025242;28;20056;-76
2022/08/12 03:12:51;;;;;;;5.03;4.53;;;19.00;99.90;;;;;;5018580;28;20044;-76
2022/08/12 03:15:21;;;;;;;7.00;4.63;;;19.00;99.90;;;;;;5020904;28;20374;-76
2022/08/12 03:17:56;;;;;;;8.38;5.05;;;19.00;99.90;;;;;;5023048;28;20045;-76
2022/08/12 03:20:22;;;;;;;6.22;4.80;;;19.00;99.90;;;;;;5020074;28;20190;-76
2022/08/12 03:22:50;;;;;;;;;;;18.90;99.90;;;;;;5018261;28;20606;-76
2022/08/12 03:25:23;;;;;;;9.30;4.78;;;18.90;99.90;;;;;;5023767;28;20348;-76
2022/08/12 03:27:54;;;;;;;9.02;5.00;;;18.90;99.90;;;;;;5017626;28;20132;-77
2022/08/12 03:30:26;;;;;;;8.43;5.07;;;18.80;99.90;;;;;;5017999;28;20041;-75
2022/08/12 03:32:53;;;;;;;7.97;5.40;;;18.90;99.90;;;;;;5025149;28;20335;-76
2022/08/12 03:35:25;;;;;;;7.28;5.18;;;18.80;99.90;;;;;;5016459;28;20498;-75
2022/08/12 03:37:55;;;;;;;6.78;5.30;;;18.80;99.90;;;;;;5017391;28;20045;-76
2022/08/12 04:03:50;;;;;;;7.22;5.53;;;18.50;99.90;;;;;;4963647;28;20038;-75
2022/08/12 04:05:52;;;;;;;10.57;5.80;;;18.50;99.90;;;;;;5012022;28;20045;-77
2022/08/12 04:08:21;;;;;;;6.28;5.57;;;18.50;99.90;;;;;;4995755;28;20037;-77
2022/08/12 04:13:32;;;;;;;7.53;5.45;;;18.40;99.90;;;;;;5020477;28;20052;-76
2022/08/12 04:16:00;;;;;;;9.95;6.47;;;18.40;99.90;;;;;;5017148;28;20037;-76
2022/08/12 04:18:27;;;;;;;9.15;6.53;;;18.30;99.90;;;;;;5020396;28;20052;-75
2022/08/12 04:20:53;;;;;;;8.68;6.18;;;18.30;99.90;;;;;;5019314;28;20034;-76
2022/08/12 04:23:20;;;;;;;;;;;18.30;99.90;;;;;;5003435;28;20045;-76
2022/08/12 04:25:46;;;;;;;10.90;6.10;;;18.30;99.90;;;;;;5022062;28;19943;-76
2022/08/12 04:28:12;;;;;;;10.10;5.97;;;18.30;99.90;;;;;;5011991;28;20117;-76
2022/08/12 04:30:39;;;;;;;7.80;5.43;;;18.30;99.90;;;;;;5016609;28;20041;-77
2022/08/12 04:33:08;;;;;;;9.50;5.38;;;18.30;99.90;;;;;;5000585;28;20041;-76
2022/08/12 04:35:34;;;;;;;9.65;5.53;;;18.30;99.90;;;;;;5012756;28;20044;-76
2022/08/12 04:38:00;;;;;;;8.93;5.28;;;18.30;99.90;;;;;;5004534;28;20038;-77
2022/08/12 04:40:28;;;;;;;;;;;18.30;99.90;;;;;;5006246;28;20476;-76
2022/08/12 04:42:54;;;;;;;9.38;5.15;;;18.30;99.90;;;;;;5017928;28;19925;-76
2022/08/12 04:45:20;;;;;;;8.40;4.70;;;18.30;99.90;;;;;;5019874;28;20045;-77
2022/08/12 04:47:46;;;;;;;10.13;5.28;;;18.30;99.90;;;;;;5022823;28;20395;-77
2022/08/12 04:50:17;;;;;;;6.75;4.07;;;18.30;99.90;;;;;;5022574;28;20669;-77
2022/08/12 04:52:42;;;;;;;9.07;5.03;;;18.30;99.90;;;;;;5030314;28;20037;-76
2022/08/12 04:55:11;;;;;;;9.80;5.00;;;18.30;99.90;;;;;;5023229;28;20517;-76
2022/08/12 04:57:38;;;;;;;9.75;5.03;;;18.30;99.90;;;;;;5025165;28;20159;-76
2022/08/12 05:00:11;;;;;;;;;;;18.30;99.90;;;;;;5007175;28;20069;-76
2022/08/12 05:02:36;;;;;;;7.93;5.50;;;18.30;99.90;;;;;;5022741;28;20003;-76
2022/08/12 05:05:04;;;;;;;8.85;5.82;;;18.30;99.90;;;;;;5002414;28;20143;-76
2022/08/12 05:07:30;;;;;;;7.88;5.50;;;18.30;99.90;;;;;;5026068;28;20512;-76
2022/08/12 05:09:55;;;;;;;9.02;4.63;;;18.30;99.90;;;;;;5003970;28;20049;-77
2022/08/12 05:12:22;;;;;;;7.18;5.72;;;18.30;99.90;;;;;;5017113;28;20391;-77
2022/08/12 05:14:49;;;;;;;8.35;5.82;;;18.30;99.90;;;;;;5025959;28;20072;-77
2022/08/12 05:17:15;;;;;;;9.20;5.43;;;18.40;99.90;;;;;;5025245;28;20045;-78
2022/08/12 05:19:41;;;;;;;8.90;5.50;;;18.40;99.90;;;;;;5025369;28;20041;-78
2022/08/12 05:22:07;;;;;;;;;;;18.40;99.90;;;;;;4997121;28;20119;-78
2022/08/12 05:24:33;;;;;;;6.82;4.88;;;18.50;99.90;;;;;;5008054;28;19921;-78
2022/08/12 05:26:59;;;;;;;9.40;5.00;;;18.50;99.90;;;;;;5026296;28;20065;-78
2022/08/12 05:29:28;;;;;;;5.65;4.50;;;18.60;99.90;;;;;;5022843;28;20104;-77
2022/08/12 05:31:55;;;;;;;7.03;4.55;;;18.60;99.90;;;;;;5020677;28;20045;-77
2022/08/12 05:34:21;;;;;;;8.60;4.88;;;18.70;99.90;;;;;;5029728;28;20107;-77
2022/08/12 05:36:47;;;;;;;9.80;4.50;;;18.80;99.90;;;;;;5022542;28;20034;-77
2022/08/12 05:39:13;;;;;;;9.40;4.78;;;18.90;99.90;;;;;;5020765;28;20103;-77
2022/08/12 05:41:38;;;;;;;6.63;4.45;;;19.00;99.90;;;;;;5020081;28;20041;-77
2022/08/12 05:44:07;;;;;;;7.05;4.63;;;19.10;99.90;;;;;;4988135;28;20038;-77
2022/08/12 05:46:34;;;;;;;10.60;4.75;;;19.20;99.90;;;;;;5017247;28;20042;-77
2022/08/12 05:49:00;;;;;;;9.80;4.55;;;19.30;99.90;;;;;;5017268;28;20168;-77
2022/08/12 05:51:29;;;;;;;7.97;4.90;;;19.40;99.90;;;;;;5024349;28;20512;-76
2022/08/12 05:53:57;;;;;;;8.57;5.15;;;19.50;99.90;;;;;;5018349;28;20056;-76
2022/08/12 05:56:29;;;;;;;7.95;4.65;;;19.60;99.90;;;;;;5024023;28;20504;-77
2022/08/12 05:58:56;;;;;;;7.70;4.82;;;19.70;99.90;;;;;;5022698;28;20177;-77
2022/08/12 06:01:24;;;;;;;6.95;4.30;;;19.80;99.90;;;;;;5007173;28;20053;-75
2022/08/12 06:03:51;;;;;;;5.38;4.35;;;19.90;99.90;;;;;;5019114;28;20038;-77
2022/08/12 06:06:18;;;;;;;8.80;4.45;;;20.10;99.90;;;;;;5014411;28;20379;-76
2022/08/12 06:08:47;;;;;;;6.68;4.07;;;20.20;99.90;;;;;;5002771;28;20493;-76
2022/08/12 06:11:17;;;;;;;7.72;4.20;;;20.30;99.90;;;;;;5017050;28;20045;-77
2022/08/12 06:13:44;;;;;;;6.93;4.00;;;20.40;99.90;;;;;;5024392;28;20041;-79
2022/08/12 06:16:12;;;;;;;5.72;4.35;;;20.50;99.90;;;;;;5024430;28;20092;-77
2022/08/12 06:18:38;;;;;;;7.18;3.72;;;20.60;99.90;;;;;;5018392;28;20038;-77
2022/08/12 06:21:11;;;;;;;;;;;20.70;99.90;;;;;;5021465;28;20046;-77
2022/08/12 06:23:38;;;;;;;6.70;3.83;;;20.90;99.90;;;;;;5019722;28;19960;-77
2022/08/12 06:26:06;;;;;;;6.05;3.60;;;21.10;99.90;;;;;;5021581;28;20030;-76
2022/08/12 06:28:32;;;;;;;7.40;3.97;;;21.30;99.90;;;;;;5028783;28;20460;-79
2022/08/12 06:30:58;;;;;;;8.75;3.78;;;21.90;99.90;;;;;;5017122;28;20042;-79
2022/08/12 06:33:24;;;;;;;;;;;22.20;99.90;;;;;;5016159;28;20046;-77
2022/08/12 06:35:51;;;;;;;5.75;3.22;;;22.70;99.90;;;;;;5017949;28;19924;-78
2022/08/12 06:38:24;;;;;;;5.70;3.40;;;23.00;99.90;;;;;;5002627;28;20064;-79
2022/08/12 06:43:43;;;;;;;7.07;3.15;;;23.50;99.90;;;;;;5022073;28;20412;-78
2022/08/12 06:46:10;;;;;;;4.75;3.22;;;23.70;99.90;;;;;;5005184;28;20041;-80
2022/08/12 06:48:36;;;;;;;5.18;3.20;;;23.90;99.90;;;;;;5019575;28;20626;-80
2022/08/12 06:51:03;;;;;;;7.68;3.47;;;24.10;99.90;;;;;;5029585;28;20137;-81
2022/08/12 06:53:31;;;;;;;6.15;3.20;;;24.30;99.90;;;;;;5030619;28;20036;-78
2022/08/12 06:55:59;;;;;;;4.97;2.95;;;24.30;99.90;;;;;;5008407;28;20044;-78
2022/08/12 06:58:26;;;;;;;7.30;2.88;;;24.50;99.90;;;;;;5027098;28;20124;-78
2022/08/12 07:00:52;;;;;;;4.35;2.75;;;24.60;99.90;;;;;;5021135;28;20046;-78
2022/08/12 07:03:24;;;;;;;5.45;3.33;;;24.80;99.90;;;;;;5005674;28;20041;-78
2022/08/12 07:05:50;;;;;;;7.40;2.50;;;25.00;99.90;;;;;;5021862;28;20053;-77
2022/08/12 07:08:16;;;;;;;5.63;2.47;;;25.20;99.90;;;;;;5008234;28;20041;-78
2022/08/12 07:10:52;;;;;;;6.60;2.90;;;25.40;99.90;;;;;;5007360;28;20049;-78
2022/08/12 07:13:19;;;;;;;7.10;2.55;;;25.50;99.90;;;;;;5003185;28;20041;-77
2022/08/12 07:15:45;;;;;;;4.15;2.78;;;25.60;99.90;;;;;;5020558;28;20046;-77
2022/08/12 07:18:16;;;;;;;3.97;2.42;;;25.90;99.90;;;;;;5023507;28;20073;-78
2022/08/12 07:20:46;;;;;;;4.55;2.63;;;26.30;99.90;;;;;;5020437;28;20050;-78
2022/08/12 07:23:12;;;;;;;5.75;2.40;;;26.30;99.90;;;;;;5012593;28;20449;-78
2022/08/12 07:25:38;;;;;;;3.75;2.50;;;26.40;99.90;;;;;;4989081;28;20033;-78
2022/08/12 07:28:23;;;;;;;3.83;2.22;;;26.50;99.90;;;;;;5004165;28;20553;-79
2022/08/12 07:30:51;;;;;;;6.68;3.00;;;26.80;99.90;;;;;;5015844;28;20037;-78
2022/08/12 07:33:21;;;;;;;5.65;2.40;;;27.00;99.90;;;;;;5001285;28;20037;-79
2022/08/12 07:35:48;;;;;;;3.42;2.35;;;27.30;99.90;;;;;;5020289;28;20081;-79
2022/08/12 07:38:23;;;;;;;5.25;2.42;;;27.40;99.10;;;;;;5017865;28;20053;-78
2022/08/12 07:40:51;;;;;;;3.70;2.10;;;27.40;98.90;;;;;;5018661;28;20048;-77
2022/08/12 07:43:17;;;;;;;4.88;2.20;;;27.50;99.20;;;;;;5008214;28;20092;-77
2022/08/12 07:45:44;;;;;;;5.53;2.20;;;27.70;98.70;;;;;;5003883;28;20070;-78
2022/08/12 07:48:10;;;;;;;8.13;2.55;;;27.90;99.30;;;;;;5011743;28;20046;-78
2022/08/12 07:50:36;;;;;;;3.88;2.40;;;27.90;98.10;;;;;;5019607;28;20067;-79
2022/08/12 07:53:02;;;;;;;6.55;2.33;;;27.90;98.30;;;;;;4990023;28;20091;-79
2022/08/12 07:55:28;;;;;;;8.40;2.17;;;27.80;98.10;;;;;;5023028;28;20124;-79
2022/08/12 07:57:58;;;;;;;5.68;2.10;;;27.90;97.40;;;;;;5037185;28;20088;-79
2022/08/12 08:00:26;;;;;;;4.97;2.00;;;28.00;97.20;;;;;;5020293;28;20600;-79
2022/08/12 08:02:53;;;;;;;8.02;2.20;;;28.20;97.80;;;;;;5021002;28;20037;-78
2022/08/12 08:05:23;;;;;;;4.68;2.20;;;28.40;98.50;;;;;;5021635;28;20109;-78
2022/08/12 08:07:52;;;;;;;3.58;2.03;;;28.50;98.00;;;;;;5017824;28;20113;-79
2022/08/12 08:10:19;;;;;;;3.67;2.10;;;28.90;97.40;;;;;;5009216;28;20037;-78
2022/08/12 08:12:55;;;;;;;5.25;2.33;;;28.90;97.60;;;;;;5022084;28;20541;-79
2022/08/12 08:15:33;;;;;;;4.68;2.10;;;29.10;97.60;;;;;;5024360;28;20037;-79
2022/08/12 08:18:02;;;;;;;11.73;2.08;;;29.40;96.70;;;;;;5012327;28;20039;-79
2022/08/12 08:20:40;;;;;;;4.95;2.00;;;29.50;97.20;;;;;;5025842;28;20038;-79
2022/08/12 08:23:17;;;;;;;5.30;2.20;;;29.40;96.60;;;;;;5023741;28;20033;-78
2022/08/12 08:25:44;;;;;;;5.18;1.92;;;29.50;96.40;;;;;;5024107;28;20084;-79
2022/08/12 08:28:11;;;;;;;7.53;1.80;;;29.60;96.80;;;;;;5024238;28;20033;-78
2022/08/12 08:30:39;;;;;;;6.93;2.00;;;29.90;96.80;;;;;;5006034;28;20520;-79
2022/08/12 08:33:08;;;;;;;5.25;2.05;;;30.10;96.60;;;;;;5024831;28;20121;-79
2022/08/12 08:35:34;;;;;;;4.13;1.80;;;30.30;96.00;;;;;;5028811;28;20128;-79
2022/08/12 08:38:13;;;;;;;5.28;2.05;;;30.50;96.20;;;;;;5010367;28;20037;-78
2022/08/12 08:43:28;;;;;;;3.25;1.75;;;30.70;94.70;;;;;;5025824;28;20049;-78
2022/08/12 08:45:55;;;;;;;7.95;1.92;;;30.80;94.30;;;;;;5025912;28;20456;-79
2022/08/12 08:48:22;;;;;;;3.28;1.83;;;30.60;94.10;;;;;;5021202;28;20041;-79
2022/08/12 08:50:48;;;;;;;7.60;1.95;;;30.90;94.50;;;;;;4991038;28;20038;-79
2022/08/12 08:53:14;;;;;;;3.35;1.88;;;31.10;94.20;;;;;;5031867;28;20055;-78
2022/08/12 08:55:41;;;;;;;8.95;2.03;;;31.30;93.80;;;;;;5008232;28;20042;-79
2022/08/12 08:58:07;;;;;;;3.78;1.77;;;31.30;94.20;;;;;;5024989;28;20120;-78
2022/08/12 09:00:41;;;;;;;4.00;1.63;;;31.60;94.30;;;;;;5005104;28;20042;-79
2022/08/12 09:03:07;;;;;;;4.65;1.85;;;31.70;93.70;;;;;;5040306;28;20508;-78
2022/08/12 09:05:34;;;;;;;6.93;1.90;;;31.80;93.90;;;;;;5026272;28;20489;-78
2022/08/12 09:08:01;;;;;;;6.18;1.83;;;32.10;93.90;;;;;;5024732;28;20055;-78
2022/08/12 09:10:28;;;;;;;3.72;1.70;;;32.40;93.90;;;;;;5012266;28;20116;-78
2022/08/12 09:15:38;;;;;;;4.00;1.90;;;32.70;92.30;;;;;;5018072;28;20112;-77
2022/08/12 09:18:06;;;;;;;4.68;1.73;;;32.80;93.20;;;;;;5006505;28;20485;-78
2022/08/12 09:20:34;;;;;;;3.55;1.67;;;32.90;93.10;;;;;;5010935;28;20037;-78
2022/08/12 09:23:01;;;;;;;4.68;1.90;;;33.10;92.40;;;;;;5003984;28;20160;-78
2022/08/12 09:25:30;;;;;;;4.63;1.80;;;33.10;92.30;;;;;;5006416;28;20041;-78
2022/08/12 09:27:57;;;;;;;5.88;1.98;;;33.10;91.90;;;;;;5023146;28;20046;-79
2022/08/12 09:30:23;;;;;;;4.57;2.00;;;33.30;92.10;;;;;;5025362;28;20401;-80
2022/08/12 09:32:50;;;;;;;4.72;1.80;;;33.20;91.00;;;;;;5025025;28;20025;-79
2022/08/12 09:35:22;;;;;;;2.83;1.63;;;33.10;91.50;;;;;;5006657;28;20038;-79
2022/08/12 09:37:50;;;;;;;6.05;1.92;;;33.80;91.60;;;;;;5023488;28;20053;-79
2022/08/12 09:40:18;;;;;;;5.00;2.15;;;33.80;90.20;;;;;;5022431;28;20049;-78
2022/08/12 09:45:31;;;;;;;4.47;1.90;;;33.80;90.50;;;;;;5007740;28;20049;-79
2022/08/12 09:48:07;;;;;;;4.78;1.77;;;33.80;90.20;;;;;;5025454;28;20508;-79
2022/08/12 09:50:33;;;;;;;;;;;33.80;89.90;;;;;;5024220;28;20041;-79
2022/08/12 09:53:03;;;;;;;;;;;33.80;90.10;;;;;;5031848;28;19916;-78
2022/08/12 09:55:28;;;;;;;3.40;1.83;;;33.40;88.00;;;;;;5020787;28;19964;-78
2022/08/12 09:57:54;;;;;;;4.30;1.77;;;33.80;89.70;;;;;;5019356;28;20073;-78
2022/08/12 10:00:24;;;;;;;2.22;1.63;;;34.10;89.60;;;;;;5023123;28;20041;-78
2022/08/12 10:03:04;;;;;;;3.72;1.83;;;34.10;88.60;;;;;;5021873;28;20041;-78
2022/08/12 10:05:35;;;;;;;5.18;1.83;;;34.40;88.90;;;;;;5018921;28;20536;-85
2022/08/12 10:08:06;;;;;;;4.80;1.70;;;34.60;89.80;;;;;;5020904;28;20048;-85
2022/08/12 10:10:32;;;;;;;5.35;1.70;;;34.60;87.70;;;;;;5028708;28;20056;-87
2022/08/12 10:16:01;;;;;;;4.55;1.90;;;35.10;86.20;;;;;;4976776;28;20049;-92
2022/08/12 10:18:31;;;;;;;3.95;1.90;;;35.40;87.50;;;;;;4975524;28;20500;-84
2022/08/12 10:20:58;;;;;;;5.10;2.50;;;35.20;86.80;;;;;;4990655;28;20054;-89
2022/08/12 10:23:24;;;;;;;5.85;1.60;;;35.20;86.50;;;;;;4974712;28;20506;-84
2022/08/12 10:31:20;;;;;;;4.32;1.90;;;35.80;85.40;;;;;;5021394;28;20556;-88
2022/08/12 10:33:46;;;;;;;4.03;1.88;;;36.10;85.00;;;;;;4981098;28;20104;-87
2022/08/12 10:36:12;;;;;;;6.68;1.98;;;36.30;84.70;;;;;;4992306;28;20045;-89
2022/08/12 10:38:37;;;;;;;4.40;1.90;;;36.20;83.00;;;;;;4973594;28;20060;-85
2022/08/12 10:43:47;;;;;;;2.63;2.00;;;36.30;83.90;;;;;;4990446;28;20549;-88
2022/08/12 10:46:16;;;;;;;7.35;2.08;;;36.20;84.40;;;;;;4994732;28;20037;-85
2022/08/12 10:48:52;;;;;;;6.03;2.33;;;36.40;83.80;;;;;;5008781;28;20061;-87
2022/08/12 10:51:18;;;;;;;2.75;1.50;;;36.70;82.70;;;;;;5018857;28;20041;-87
2022/08/12 10:53:47;;;;;;;4.95;1.85;;;36.60;82.20;;;;;;4986264;28;20117;-87
2022/08/12 10:56:14;;;;;;;3.15;1.73;;;36.60;82.10;;;;;;5007896;28;20030;-87
2022/08/12 10:58:40;;;;;;;7.40;1.90;;;36.60;81.50;;;;;;4979733;28;20038;-89
2022/08/12 11:01:09;;;;;;;6.00;1.90;;;36.30;81.10;;;;;;4985362;28;20037;-90
2022/08/12 11:03:40;;;;;;;2.60;1.90;;;36.40;80.80;;;;;;5002831;28;20038;-88
2022/08/12 11:06:08;;;;;;;5.28;1.92;;;36.50;80.70;;;;;;4996748;28;20033;-91
2022/08/12 11:08:36;;;;;;;4.43;1.90;;;37.00;82.20;;;;;;5020823;28;20048;-93
2022/08/12 11:11:07;;;;;;;3.35;1.95;;;37.10;81.70;;;;;;5028322;28;20049;-90
2022/08/12 11:13:34;;;;;;;3.65;2.15;;;37.20;80.00;;;;;;4987509;28;20048;-93
2022/08/12 11:16:00;;;;;;;2.75;1.95;;;37.30;80.40;;;;;;5011372;28;20030;-93
2022/08/12 11:18:26;;;;;;;4.00;1.80;;;37.10;79.60;;;;;;4968139;28;20073;-86
2022/08/12 11:20:53;;;;;;;5.78;1.83;;;37.10;79.60;;;;;;4994167;28;20064;-88
2022/08/12 11:23:20;;;;;;;3.33;1.90;;;37.20;78.50;;;;;;5003723;28;20041;-90
2022/08/12 11:25:47;;;;;;;3.40;1.42;;;37.20;79.60;;;;;;5021508;28;20128;-93
2022/08/12 11:28:17;;;;;;;6.82;1.63;;;37.10;78.50;;;;;;4989732;28;20047;-93
2022/08/12 11:30:44;;;;;;;3.85;1.50;;;37.20;76.80;;;;;;5004718;28;20042;-93
2022/08/12 11:33:11;;;;;;;4.07;1.33;;;37.40;77.90;;;;;;5022192;28;20036;-93
2022/08/12 11:35:40;;;;;;;5.85;1.67;;;37.30;77.90;;;;;;5015007;28;20033;-88
2022/08/12 11:38:06;;;;;;;5.28;1.98;;;37.40;78.30;;;;;;4998578;28;20056;-88
2022/08/12 11:40:32;;;;;;;3.15;1.60;;;37.50;77.50;;;;;;5017298;28;20511;-87
2022/08/12 11:42:59;;;;;;;2.53;1.30;;;37.00;76.80;;;;;;5022867;28;20034;-90
2022/08/12 11:45:29;;;;;;;3.50;1.40;;;37.30;77.70;;;;;;4991929;28;20497;-84
2022/08/12 11:47:56;;;;;;;4.13;1.50;;;37.70;77.90;;;;;;5014908;28;20041;-85
2022/08/12 11:50:22;;;;;;;4.28;1.73;;;38.00;77.60;;;;;;5004044;28;20041;-80
2022/08/12 11:52:49;;;;;;;3.55;1.60;;;38.00;76.80;;;;;;5021484;28;20064;-87
2022/08/12 11:55:15;;;;;;;4.32;1.95;;;37.80;77.00;;;;;;5004425;28;20044;-86
2022/08/12 11:57:51;;;;;;;2.15;1.60;;;37.60;76.80;;;;;;4996792;28;20033;-84
2022/08/12 12:00:18;;;;;;;3.75;1.60;;;37.40;76.60;;;;;;5028695;28;20477;-88
2022/08/12 12:02:44;;;;;;;4.05;1.50;;;37.60;76.40;;;;;;5018682;28;20034;-82
2022/08/12 12:05:10;;;;;;;3.33;1.55;;;38.10;77.90;;;;;;5006580;28;20498;-91
2022/08/12 12:07:40;;;;;;;2.85;1.40;;;38.30;77.40;;;;;;4968294;28;20046;-92
2022/08/12 12:10:07;;;;;;;3.58;1.60;;;38.20;77.50;;;;;;4991664;28;20050;-92
2022/08/12 12:12:34;;;;;;;1.60;1.40;;;38.50;77.60;;;;;;4994281;28;20108;-93
2022/08/12 12:15:00;;;;;;;4.90;1.40;;;38.10;77.40;;;;;;4992170;28;20044;-92
2022/08/12 12:17:26;;;;;;;2.30;1.45;;;38.00;76.60;;;;;;5006367;28;20049;-88
2022/08/12 12:19:53;;;;;;;2.72;1.48;;;37.80;76.10;;;;;;5001351;28;20038;-84
2022/08/12 12:22:19;;;;;;;4.13;1.48;;;38.00;76.40;;;;;;5021348;28;20045;-89
2022/08/12 12:24:47;;;;;;;3.58;1.40;;;38.20;77.10;;;;;;5023124;28;20048;-81
2022/08/12 12:27:13;;;;;;;3.20;1.40;;;38.40;76.60;;;;;;4986328;28;20041;-90
2022/08/12 12:29:38;;;;;;;6.05;1.90;;;38.60;76.30;;;;;;5023926;28;20042;-89
2022/08/12 12:32:04;;;;;;;3.63;1.38;;;38.30;76.90;;;;;;4991454;28;20069;-89
2022/08/12 12:34:30;;;;;;;4.57;1.70;;;38.30;75.70;;;;;;4972800;28;20120;-87
2022/08/12 12:36:59;;;;;;;3.03;1.23;;;37.60;75.30;;;;;;4994553;28;20038;-88
2022/08/12 12:39:25;;;;;;;1.90;1.30;;;37.60;76.60;;;;;;4993627;28;20112;-88
2022/08/12 12:41:51;;;;;;;3.08;1.40;;;37.50;75.40;;;;;;5018774;28;20041;-90
2022/08/12 12:44:17;;;;;;;2.38;1.30;;;37.80;76.00;;;;;;5030897;28;20037;-89
2022/08/12 12:46:43;;;;;;;4.63;1.60;;;38.30;76.60;;;;;;5033174;28;20045;-89
2022/08/12 12:49:09;;;;;;;2.47;1.20;;;38.50;75.90;;;;;;5008242;28;20041;-89
2022/08/12 12:51:35;;;;;;;2.00;1.40;;;38.20;75.50;;;;;;5013403;28;20037;-88
2022/08/12 12:54:01;;;;;;;2.80;1.30;;;38.10;76.00;;;;;;5029650;28;20038;-91
2022/08/12 12:56:30;;;;;;;3.03;1.13;;;37.70;74.60;;;;;;5029764;28;20041;-89
2022/08/12 12:58:56;;;;;;;3.10;1.50;;;37.70;75.80;;;;;;4990864;28;20065;-90
2022/08/12 13:01:25;;;;;;;3.85;1.30;;;37.60;75.40;;;;;;5017260;28;20045;-90
2022/08/12 13:03:53;;;;;;;2.75;1.23;;;38.10;75.50;;;;;;5027640;28;20526;-90
2022/08/12 13:06:28;;;;;;;5.10;1.20;;;38.00;74.70;;;;;;5010663;28;20073;-90
2022/08/12 13:08:59;;;;;;;4.47;1.20;;;38.10;74.90;;;;;;5007622;28;20046;-90
2022/08/12 13:11:27;;;;;;;3.75;1.25;;;38.40;75.00;;;;;;5010357;28;20041;-91
2022/08/12 13:13:54;;;;;;;2.22;1.17;;;38.50;74.60;;;;;;5028199;28;20053;-90
2022/08/12 13:16:20;;;;;;;2.38;1.13;;;38.50;74.40;;;;;;5018829;28;20033;-88
2022/08/12 13:18:50;;;;;;;2.47;1.10;;;38.30;75.10;;;;;;5006882;28;20140;-90
2022/08/12 13:21:17;;;;;;;3.53;1.40;;;38.30;73.40;;;;;;4996400;28;20099;-88
2022/08/12 13:23:47;;;;;;;1.85;1.00;;;37.90;72.70;;;;;;5017279;28;20052;-88
2022/08/12 13:26:18;;;;;;;2.42;1.10;;;38.10;72.60;;;;;;5008213;28;20041;-88
2022/08/12 13:28:46;;;;;;;2.83;0.95;;;37.80;73.20;;;;;;5022324;28;20095;-88
2022/08/12 13:31:18;;;;;;;4.80;1.30;;;37.80;73.80;;;;;;5023487;28;20038;-88
2022/08/12 13:33:50;;;;;;;2.65;1.20;;;37.80;73.60;;;;;;5008374;28;20064;-90
2022/08/12 13:36:19;;;;;;;3.15;1.23;;;37.80;73.50;;;;;;5008242;28;20096;-88
2022/08/12 13:38:49;;;;;;;2.38;1.20;;;37.60;74.20;;;;;;4989485;28;20049;-88
2022/08/12 13:41:31;;;;;;;5.20;1.83;;;38.00;74.90;;;;;;5020503;28;20057;-87
2022/08/12 13:44:03;;;;;;;1.65;1.10;;;38.00;75.00;;;;;;5021457;28;20394;-88
2022/08/12 13:46:29;;;;;;;2.13;1.20;;;37.80;74.20;;;;;;4999692;28;20095;-87
2022/08/12 13:48:55;;;;;;;4.13;1.40;;;37.90;74.60;;;;;;4983091;28;20046;-87
2022/08/12 13:51:22;;;;;;;5.28;1.00;;;37.90;74.00;;;;;;5015348;28;20132;-87
2022/08/12 13:53:49;;;;;;;3.70;1.20;;;37.40;73.90;;;;;;5020364;28;20072;-87
2022/08/12 13:56:15;;;;;;;3.20;1.30;;;36.70;74.30;;;;;;4989401;28;20125;-88
2022/08/12 13:58:45;;;;;;;3.92;1.33;;;36.30;74.90;;;;;;4983392;28;20125;-87
2022/08/12 14:01:11;;;;;;;3.00;1.00;;;35.70;74.10;;;;;;5036116;23;20046;-88
2022/08/12 14:03:37;;;;;;;3.22;1.13;;;35.70;75.40;;;;;;5020902;28;20091;-89
2022/08/12 14:06:03;;;;;;;4.68;1.15;;;35.60;75.50;;;;;;5012645;28;20032;-86
2022/08/12 14:08:29;;;;;;;3.55;1.20;;;35.60;75.50;;;;;;5051796;28;20509;-86
2022/08/12 14:10:55;;;;;;;3.70;1.27;;;35.70;76.10;;;;;;5035334;28;20048;-86
2022/08/12 14:13:26;;;;;;;4.10;1.15;;;35.70;75.90;;;;;;5014031;28;20041;-85
2022/08/12 14:15:58;;;;;;;5.68;1.20;;;35.70;77.00;;;;;;5044479;28;20049;-86
2022/08/12 14:18:32;;;;;;;1.33;0.90;;;35.40;75.80;;;;;;5045498;28;20038;-85
2022/08/12 14:21:03;;;;;;;4.40;1.33;;;35.10;76.00;;;;;;5026635;28;20052;-85
2022/08/12 14:23:32;;;;;;;3.45;1.17;;;35.00;75.90;;;;;;5039050;28;20037;-86
2022/08/12 14:25:59;;;;;;;3.67;1.50;;;35.10;76.90;;;;;;5023405;28;20098;-86
2022/08/12 14:28:27;;;;;;;2.95;1.10;;;34.90;77.50;;;;;;5029284;28;20493;-86
2022/08/12 14:31:01;;;;;;;7.90;1.50;;;34.60;76.10;;;;;;5033917;28;20177;-86
2022/08/12 14:33:32;;;;;;;2.30;1.08;;;34.40;76.40;;;;;;5034921;28;20033;-86
2022/08/12 14:35:59;;;;;;;3.58;1.10;;;34.20;76.20;;;;;;5051432;28;20037;-86
2022/08/12 14:38:27;;;;;;;5.30;1.20;;;33.90;76.10;;;;;;5034429;28;20037;-85
2022/08/12 14:41:03;;;;;;;4.05;1.17;;;33.90;76.90;;;;;;5051268;28;20513;-86
2022/08/12 14:43:32;;;;;;;3.60;1.35;;;33.80;77.40;;;;;;5017355;28;20447;-86